sensor_id;sensor_type;location;lat;lon;timestamp;P1;durP1;ratioP1;P2;durP2;ratioP2
60464;SDS011;46314;52.392;9.758;2023-04-10T00:01:45;48.97;;;37.80;;
60464;SDS011;46314;52.392;9.758;2023-04-10T00:04:11;52.30;;;37.30;;
60464;SDS011;46314;52.392;9.758;2023-04-10T00:06:38;49.35;;;37.42;;
60464;SDS011;46314;52.392;9.758;2023-04-10T00:09:04;50.22;;;40.17;;
60464;SDS011;46314;52.392;9.758;2023-04-10T00:11:31;48.45;;;38.03;;
60464;SDS011;46314;52.392;9.758;2023-04-10T00:13:58;52.70;;;38.97;;
60464;SDS011;46314;52.392;9.758;2023-04-10T00:16:25;55.63;;;41.10;;
60464;SDS011;46314;52.392;9.758;2023-04-10T00:18:51;52.38;;;39.72;;
60464;SDS011;46314;52.392;9.758;2023-04-10T00:21:18;53.90;;;43.03;;
60464;SDS011;46314;52.392;9.758;2023-04-10T00:23:44;53.75;;;41.97;;
60464;SDS011;46314;52.392;9.758;2023-04-10T00:26:10;53.15;;;39.50;;
60464;SDS011;46314;52.392;9.758;2023-04-10T00:28:37;55.17;;;41.95;;
60464;SDS011;46314;52.392;9.758;2023-04-10T00:31:05;53.65;;;40.38;;
60464;SDS011;46314;52.392;9.758;2023-04-10T00:33:31;56.33;;;44.90;;
60464;SDS011;46314;52.392;9.758;2023-04-10T00:35:57;54.95;;;40.90;;
60464;SDS011;46314;52.392;9.758;2023-04-10T00:38:24;57.10;;;42.30;;
60464;SDS011;46314;52.392;9.758;2023-04-10T00:40:50;59.33;;;42.65;;
60464;SDS011;46314;52.392;9.758;2023-04-10T00:43:17;52.75;;;39.10;;
60464;SDS011;46314;52.392;9.758;2023-04-10T00:45:43;55.20;;;40.90;;
60464;SDS011;46314;52.392;9.758;2023-04-10T00:48:11;59.22;;;42.50;;
60464;SDS011;46314;52.392;9.758;2023-04-10T00:50:38;57.15;;;43.63;;
60464;SDS011;46314;52.392;9.758;2023-04-10T00:53:04;58.72;;;45.17;;
60464;SDS011;46314;52.392;9.758;2023-04-10T00:55:30;55.80;;;42.30;;
60464;SDS011;46314;52.392;9.758;2023-04-10T00:57:57;58.67;;;43.47;;
60464;SDS011;46314;52.392;9.758;2023-04-10T01:00:24;51.40;;;40.83;;
60464;SDS011;46314;52.392;9.758;2023-04-10T01:02:50;51.40;;;39.17;;
60464;SDS011;46314;52.392;9.758;2023-04-10T01:05:19;57.72;;;39.67;;
60464;SDS011;46314;52.392;9.758;2023-04-10T01:07:50;52.92;;;41.08;;
60464;SDS011;46314;52.392;9.758;2023-04-10T01:10:25;61.10;;;44.08;;
60464;SDS011;46314;52.392;9.758;2023-04-10T01:13:02;55.95;;;44.90;;
60464;SDS011;46314;52.392;9.758;2023-04-10T01:18:04;58.50;;;42.13;;
60464;SDS011;46314;52.392;9.758;2023-04-10T01:20:37;58.37;;;43.37;;
60464;SDS011;46314;52.392;9.758;2023-04-10T01:23:11;56.90;;;42.67;;
60464;SDS011;46314;52.392;9.758;2023-04-10T01:25:57;56.15;;;42.88;;
60464;SDS011;46314;52.392;9.758;2023-04-10T01:28:46;58.60;;;45.22;;
60464;SDS011;46314;52.392;9.758;2023-04-10T01:31:18;61.42;;;45.70;;
60464;SDS011;46314;52.392;9.758;2023-04-10T01:33:50;57.88;;;44.92;;
60464;SDS011;46314;52.392;9.758;2023-04-10T01:36:20;60.70;;;44.95;;
60464;SDS011;46314;52.392;9.758;2023-04-10T01:38:49;60.17;;;45.35;;
60464;SDS011;46314;52.392;9.758;2023-04-10T01:41:18;66.38;;;47.78;;
60464;SDS011;46314;52.392;9.758;2023-04-10T01:43:48;61.38;;;46.15;;
60464;SDS011;46314;52.392;9.758;2023-04-10T01:46:18;59.97;;;46.17;;
60464;SDS011;46314;52.392;9.758;2023-04-10T01:48:46;56.38;;;42.95;;
60464;SDS011;46314;52.392;9.758;2023-04-10T01:51:14;58.90;;;43.58;;
60464;SDS011;46314;52.392;9.758;2023-04-10T01:53:42;55.88;;;43.88;;
60464;SDS011;46314;52.392;9.758;2023-04-10T01:56:09;63.30;;;44.35;;
60464;SDS011;46314;52.392;9.758;2023-04-10T01:58:36;58.55;;;43.60;;
60464;SDS011;46314;52.392;9.758;2023-04-10T02:01:04;54.03;;;41.90;;
60464;SDS011;46314;52.392;9.758;2023-04-10T02:03:31;55.45;;;41.38;;
60464;SDS011;46314;52.392;9.758;2023-04-10T02:06:00;50.97;;;39.45;;
60464;SDS011;46314;52.392;9.758;2023-04-10T02:08:36;57.50;;;41.35;;
60464;SDS011;46314;52.392;9.758;2023-04-10T02:11:06;53.55;;;41.75;;
60464;SDS011;46314;52.392;9.758;2023-04-10T02:13:38;53.08;;;41.13;;
60464;SDS011;46314;52.392;9.758;2023-04-10T02:16:07;55.75;;;41.20;;
60464;SDS011;46314;52.392;9.758;2023-04-10T02:18:35;51.22;;;39.05;;
60464;SDS011;46314;52.392;9.758;2023-04-10T02:21:03;53.38;;;40.05;;
60464;SDS011;46314;52.392;9.758;2023-04-10T02:23:31;52.35;;;38.83;;
60464;SDS011;46314;52.392;9.758;2023-04-10T02:26:00;51.80;;;38.22;;
60464;SDS011;46314;52.392;9.758;2023-04-10T02:28:31;49.20;;;37.15;;
60464;SDS011;46314;52.392;9.758;2023-04-10T02:30:57;50.75;;;39.25;;
60464;SDS011;46314;52.392;9.758;2023-04-10T02:33:25;51.20;;;39.03;;
60464;SDS011;46314;52.392;9.758;2023-04-10T02:35:51;51.10;;;37.38;;
60464;SDS011;46314;52.392;9.758;2023-04-10T02:38:18;49.58;;;37.90;;
60464;SDS011;46314;52.392;9.758;2023-04-10T02:40:44;48.58;;;35.88;;
60464;SDS011;46314;52.392;9.758;2023-04-10T02:43:11;45.63;;;35.72;;
60464;SDS011;46314;52.392;9.758;2023-04-10T02:45:37;48.92;;;35.83;;
60464;SDS011;46314;52.392;9.758;2023-04-10T02:48:04;50.03;;;35.85;;
60464;SDS011;46314;52.392;9.758;2023-04-10T02:50:32;55.17;;;37.88;;
60464;SDS011;46314;52.392;9.758;2023-04-10T02:52:58;46.75;;;35.38;;
60464;SDS011;46314;52.392;9.758;2023-04-10T02:55:25;51.45;;;37.20;;
60464;SDS011;46314;52.392;9.758;2023-04-10T02:57:51;46.28;;;35.22;;
60464;SDS011;46314;52.392;9.758;2023-04-10T03:00:18;48.60;;;35.88;;
60464;SDS011;46314;52.392;9.758;2023-04-10T03:02:45;52.35;;;38.20;;
60464;SDS011;46314;52.392;9.758;2023-04-10T03:05:11;47.97;;;36.13;;
60464;SDS011;46314;52.392;9.758;2023-04-10T03:07:39;48.80;;;35.97;;
60464;SDS011;46314;52.392;9.758;2023-04-10T03:10:06;44.08;;;34.00;;
60464;SDS011;46314;52.392;9.758;2023-04-10T03:12:33;47.38;;;36.53;;
60464;SDS011;46314;52.392;9.758;2023-04-10T03:15:00;49.55;;;36.17;;
60464;SDS011;46314;52.392;9.758;2023-04-10T03:17:26;50.40;;;36.75;;
60464;SDS011;46314;52.392;9.758;2023-04-10T03:19:52;52.47;;;38.13;;
60464;SDS011;46314;52.392;9.758;2023-04-10T03:22:19;48.47;;;37.17;;
60464;SDS011;46314;52.392;9.758;2023-04-10T03:24:46;49.13;;;35.95;;
60464;SDS011;46314;52.392;9.758;2023-04-10T03:27:13;46.67;;;36.28;;
60464;SDS011;46314;52.392;9.758;2023-04-10T03:29:39;48.97;;;37.92;;
60464;SDS011;46314;52.392;9.758;2023-04-10T03:32:06;49.60;;;36.40;;
60464;SDS011;46314;52.392;9.758;2023-04-10T03:34:32;47.00;;;37.30;;
60464;SDS011;46314;52.392;9.758;2023-04-10T03:36:58;48.80;;;36.45;;
60464;SDS011;46314;52.392;9.758;2023-04-10T03:39:25;50.63;;;35.63;;
60464;SDS011;46314;52.392;9.758;2023-04-10T03:41:52;50.55;;;39.00;;
60464;SDS011;46314;52.392;9.758;2023-04-10T03:44:19;49.35;;;36.00;;
60464;SDS011;46314;52.392;9.758;2023-04-10T03:46:45;45.97;;;35.85;;
60464;SDS011;46314;52.392;9.758;2023-04-10T03:49:11;49.58;;;37.85;;
60464;SDS011;46314;52.392;9.758;2023-04-10T03:51:38;53.63;;;37.55;;
60464;SDS011;46314;52.392;9.758;2023-04-10T03:54:04;50.70;;;37.33;;
60464;SDS011;46314;52.392;9.758;2023-04-10T03:56:31;45.47;;;34.15;;
60464;SDS011;46314;52.392;9.758;2023-04-10T03:58:58;49.47;;;36.55;;
60464;SDS011;46314;52.392;9.758;2023-04-10T04:01:25;49.50;;;38.63;;
60464;SDS011;46314;52.392;9.758;2023-04-10T04:03:51;49.58;;;36.60;;
60464;SDS011;46314;52.392;9.758;2023-04-10T04:06:18;46.22;;;35.88;;
60464;SDS011;46314;52.392;9.758;2023-04-10T04:08:45;49.97;;;37.03;;
60464;SDS011;46314;52.392;9.758;2023-04-10T04:11:11;47.28;;;34.25;;
60464;SDS011;46314;52.392;9.758;2023-04-10T04:13:38;48.00;;;36.63;;
60464;SDS011;46314;52.392;9.758;2023-04-10T04:16:06;47.67;;;36.67;;
60464;SDS011;46314;52.392;9.758;2023-04-10T04:18:34;48.03;;;36.25;;
60464;SDS011;46314;52.392;9.758;2023-04-10T04:21:00;44.13;;;34.40;;
60464;SDS011;46314;52.392;9.758;2023-04-10T04:23:27;50.05;;;35.75;;
60464;SDS011;46314;52.392;9.758;2023-04-10T04:25:53;52.33;;;38.35;;
60464;SDS011;46314;52.392;9.758;2023-04-10T04:28:21;44.15;;;35.08;;
60464;SDS011;46314;52.392;9.758;2023-04-10T04:30:47;46.13;;;35.45;;
60464;SDS011;46314;52.392;9.758;2023-04-10T04:33:15;46.33;;;36.03;;
60464;SDS011;46314;52.392;9.758;2023-04-10T04:35:41;44.28;;;34.33;;
60464;SDS011;46314;52.392;9.758;2023-04-10T04:38:08;46.60;;;36.15;;
60464;SDS011;46314;52.392;9.758;2023-04-10T04:40:34;48.35;;;35.20;;
60464;SDS011;46314;52.392;9.758;2023-04-10T04:43:01;44.20;;;32.63;;
60464;SDS011;46314;52.392;9.758;2023-04-10T04:45:27;45.22;;;34.35;;
60464;SDS011;46314;52.392;9.758;2023-04-10T04:47:53;44.30;;;34.10;;
60464;SDS011;46314;52.392;9.758;2023-04-10T04:50:21;43.05;;;33.55;;
60464;SDS011;46314;52.392;9.758;2023-04-10T04:52:48;45.45;;;34.08;;
60464;SDS011;46314;52.392;9.758;2023-04-10T04:55:14;42.95;;;32.88;;
60464;SDS011;46314;52.392;9.758;2023-04-10T04:57:40;42.95;;;32.67;;
60464;SDS011;46314;52.392;9.758;2023-04-10T05:00:07;43.40;;;32.78;;
60464;SDS011;46314;52.392;9.758;2023-04-10T05:02:34;41.75;;;32.90;;
60464;SDS011;46314;52.392;9.758;2023-04-10T05:05:01;46.15;;;33.92;;
60464;SDS011;46314;52.392;9.758;2023-04-10T05:07:29;41.67;;;32.85;;
60464;SDS011;46314;52.392;9.758;2023-04-10T05:09:55;45.42;;;35.13;;
60464;SDS011;46314;52.392;9.758;2023-04-10T05:12:21;41.55;;;33.08;;
60464;SDS011;46314;52.392;9.758;2023-04-10T05:14:48;47.75;;;35.83;;
60464;SDS011;46314;52.392;9.758;2023-04-10T05:17:14;46.05;;;33.65;;
60464;SDS011;46314;52.392;9.758;2023-04-10T05:19:41;39.08;;;31.17;;
60464;SDS011;46314;52.392;9.758;2023-04-10T05:22:07;42.80;;;33.38;;
60464;SDS011;46314;52.392;9.758;2023-04-10T05:24:35;42.78;;;33.58;;
60464;SDS011;46314;52.392;9.758;2023-04-10T05:27:01;43.58;;;34.00;;
60464;SDS011;46314;52.392;9.758;2023-04-10T05:29:28;46.05;;;33.25;;
60464;SDS011;46314;52.392;9.758;2023-04-10T05:31:54;39.63;;;29.65;;
60464;SDS011;46314;52.392;9.758;2023-04-10T05:34:20;42.28;;;31.02;;
60464;SDS011;46314;52.392;9.758;2023-04-10T05:36:47;41.17;;;33.15;;
60464;SDS011;46314;52.392;9.758;2023-04-10T05:39:13;41.08;;;32.35;;
60464;SDS011;46314;52.392;9.758;2023-04-10T05:41:41;42.35;;;31.67;;
60464;SDS011;46314;52.392;9.758;2023-04-10T05:44:07;39.38;;;31.33;;
60464;SDS011;46314;52.392;9.758;2023-04-10T05:46:34;40.45;;;31.20;;
60464;SDS011;46314;52.392;9.758;2023-04-10T05:49:00;40.00;;;31.40;;
60464;SDS011;46314;52.392;9.758;2023-04-10T05:51:26;42.15;;;32.03;;
60464;SDS011;46314;52.392;9.758;2023-04-10T05:53:53;39.70;;;30.13;;
60464;SDS011;46314;52.392;9.758;2023-04-10T05:56:19;41.08;;;31.05;;
60464;SDS011;46314;52.392;9.758;2023-04-10T05:58:47;35.20;;;29.35;;
60464;SDS011;46314;52.392;9.758;2023-04-10T06:01:13;37.55;;;29.30;;
60464;SDS011;46314;52.392;9.758;2023-04-10T06:03:40;42.13;;;31.73;;
60464;SDS011;46314;52.392;9.758;2023-04-10T06:06:06;39.47;;;30.48;;
60464;SDS011;46314;52.392;9.758;2023-04-10T06:08:33;37.75;;;30.23;;
60464;SDS011;46314;52.392;9.758;2023-04-10T06:10:59;38.67;;;29.50;;
60464;SDS011;46314;52.392;9.758;2023-04-10T06:13:26;39.80;;;30.45;;
60464;SDS011;46314;52.392;9.758;2023-04-10T06:15:54;37.40;;;30.15;;
60464;SDS011;46314;52.392;9.758;2023-04-10T06:18:20;39.17;;;30.30;;
60464;SDS011;46314;52.392;9.758;2023-04-10T06:20:46;36.13;;;28.98;;
60464;SDS011;46314;52.392;9.758;2023-04-10T06:23:13;38.00;;;31.17;;
60464;SDS011;46314;52.392;9.758;2023-04-10T06:25:39;39.25;;;29.08;;
60464;SDS011;46314;52.392;9.758;2023-04-10T06:28:06;38.45;;;29.92;;
60464;SDS011;46314;52.392;9.758;2023-04-10T06:30:32;33.80;;;26.75;;
60464;SDS011;46314;52.392;9.758;2023-04-10T06:33:00;37.90;;;30.00;;
60464;SDS011;46314;52.392;9.758;2023-04-10T06:35:26;34.80;;;27.98;;
60464;SDS011;46314;52.392;9.758;2023-04-10T06:37:53;33.67;;;27.50;;
60464;SDS011;46314;52.392;9.758;2023-04-10T06:40:19;32.75;;;29.17;;
60464;SDS011;46314;52.392;9.758;2023-04-10T06:42:45;34.35;;;28.05;;
60464;SDS011;46314;52.392;9.758;2023-04-10T06:45:12;35.78;;;28.20;;
60464;SDS011;46314;52.392;9.758;2023-04-10T06:47:38;32.65;;;26.58;;
60464;SDS011;46314;52.392;9.758;2023-04-10T06:50:06;38.45;;;25.63;;
60464;SDS011;46314;52.392;9.758;2023-04-10T06:52:33;32.63;;;26.38;;
60464;SDS011;46314;52.392;9.758;2023-04-10T06:55:00;30.15;;;25.30;;
60464;SDS011;46314;52.392;9.758;2023-04-10T06:57:26;28.70;;;23.17;;
60464;SDS011;46314;52.392;9.758;2023-04-10T06:59:52;27.30;;;21.88;;
60464;SDS011;46314;52.392;9.758;2023-04-10T07:02:19;28.85;;;23.75;;
60464;SDS011;46314;52.392;9.758;2023-04-10T07:04:46;30.33;;;25.35;;
60464;SDS011;46314;52.392;9.758;2023-04-10T07:07:13;26.42;;;22.23;;
60464;SDS011;46314;52.392;9.758;2023-04-10T07:09:40;28.15;;;22.05;;
60464;SDS011;46314;52.392;9.758;2023-04-10T07:12:06;25.55;;;21.40;;
60464;SDS011;46314;52.392;9.758;2023-04-10T07:14:33;25.02;;;20.33;;
60464;SDS011;46314;52.392;9.758;2023-04-10T07:16:59;29.05;;;21.70;;
60464;SDS011;46314;52.392;9.758;2023-04-10T07:19:26;24.30;;;21.17;;
60464;SDS011;46314;52.392;9.758;2023-04-10T07:21:52;24.33;;;20.70;;
60464;SDS011;46314;52.392;9.758;2023-04-10T07:24:20;23.50;;;20.88;;
60464;SDS011;46314;52.392;9.758;2023-04-10T07:26:46;21.90;;;19.13;;
60464;SDS011;46314;52.392;9.758;2023-04-10T07:29:13;22.58;;;19.92;;
60464;SDS011;46314;52.392;9.758;2023-04-10T07:31:39;22.75;;;20.02;;
60464;SDS011;46314;52.392;9.758;2023-04-10T07:34:06;23.90;;;19.98;;
60464;SDS011;46314;52.392;9.758;2023-04-10T07:36:32;24.80;;;19.50;;
60464;SDS011;46314;52.392;9.758;2023-04-10T07:38:59;20.35;;;17.10;;
60464;SDS011;46314;52.392;9.758;2023-04-10T07:41:26;20.88;;;18.13;;
60464;SDS011;46314;52.392;9.758;2023-04-10T07:43:53;21.05;;;17.08;;
60464;SDS011;46314;52.392;9.758;2023-04-10T07:46:19;21.13;;;17.50;;
60464;SDS011;46314;52.392;9.758;2023-04-10T07:48:46;20.70;;;17.30;;
60464;SDS011;46314;52.392;9.758;2023-04-10T07:51:12;18.52;;;16.17;;
60464;SDS011;46314;52.392;9.758;2023-04-10T07:53:39;19.13;;;15.90;;
60464;SDS011;46314;52.392;9.758;2023-04-10T07:56:06;18.92;;;16.23;;
60464;SDS011;46314;52.392;9.758;2023-04-10T07:58:34;18.98;;;15.60;;
60464;SDS011;46314;52.392;9.758;2023-04-10T08:01:01;20.23;;;16.83;;
60464;SDS011;46314;52.392;9.758;2023-04-10T08:03:27;17.67;;;15.73;;
60464;SDS011;46314;52.392;9.758;2023-04-10T08:05:54;17.52;;;15.52;;
60464;SDS011;46314;52.392;9.758;2023-04-10T08:08:20;19.05;;;16.52;;
60464;SDS011;46314;52.392;9.758;2023-04-10T08:10:47;16.02;;;14.43;;
60464;SDS011;46314;52.392;9.758;2023-04-10T08:13:13;16.63;;;14.45;;
60464;SDS011;46314;52.392;9.758;2023-04-10T08:15:41;17.80;;;15.90;;
60464;SDS011;46314;52.392;9.758;2023-04-10T08:18:07;17.10;;;15.30;;
60464;SDS011;46314;52.392;9.758;2023-04-10T08:20:34;17.90;;;16.00;;
60464;SDS011;46314;52.392;9.758;2023-04-10T08:23:00;17.23;;;15.43;;
60464;SDS011;46314;52.392;9.758;2023-04-10T08:25:44;16.58;;;14.70;;
60464;SDS011;46314;52.392;9.758;2023-04-10T08:28:11;16.65;;;14.63;;
60464;SDS011;46314;52.392;9.758;2023-04-10T08:30:37;17.45;;;15.32;;
60464;SDS011;46314;52.392;9.758;2023-04-10T08:33:05;17.92;;;14.88;;
60464;SDS011;46314;52.392;9.758;2023-04-10T08:35:31;15.75;;;14.15;;
60464;SDS011;46314;52.392;9.758;2023-04-10T08:37:58;15.57;;;13.98;;
60464;SDS011;46314;52.392;9.758;2023-04-10T08:40:39;16.05;;;14.35;;
60464;SDS011;46314;52.392;9.758;2023-04-10T08:43:05;15.75;;;13.93;;
60464;SDS011;46314;52.392;9.758;2023-04-10T08:45:32;15.45;;;13.82;;
60464;SDS011;46314;52.392;9.758;2023-04-10T08:47:58;16.08;;;13.75;;
60464;SDS011;46314;52.392;9.758;2023-04-10T08:50:32;14.32;;;12.77;;
60464;SDS011;46314;52.392;9.758;2023-04-10T08:53:00;16.38;;;13.82;;
60464;SDS011;46314;52.392;9.758;2023-04-10T08:55:33;13.98;;;12.63;;
60464;SDS011;46314;52.392;9.758;2023-04-10T08:58:00;15.60;;;13.48;;
60464;SDS011;46314;52.392;9.758;2023-04-10T09:00:27;15.88;;;14.27;;
60464;SDS011;46314;52.392;9.758;2023-04-10T09:02:54;15.02;;;13.45;;
60464;SDS011;46314;52.392;9.758;2023-04-10T09:05:20;15.05;;;13.45;;
60464;SDS011;46314;52.392;9.758;2023-04-10T09:07:49;16.75;;;14.98;;
60464;SDS011;46314;52.392;9.758;2023-04-10T09:10:16;15.23;;;13.63;;
60464;SDS011;46314;52.392;9.758;2023-04-10T09:12:42;16.27;;;14.63;;
60464;SDS011;46314;52.392;9.758;2023-04-10T09:15:09;15.32;;;13.82;;
60464;SDS011;46314;52.392;9.758;2023-04-10T09:17:36;14.35;;;12.80;;
60464;SDS011;46314;52.392;9.758;2023-04-10T09:20:02;15.98;;;13.18;;
60464;SDS011;46314;52.392;9.758;2023-04-10T09:22:45;15.73;;;14.23;;
60464;SDS011;46314;52.392;9.758;2023-04-10T09:25:27;14.68;;;13.20;;
60464;SDS011;46314;52.392;9.758;2023-04-10T09:27:58;14.60;;;12.98;;
60464;SDS011;46314;52.392;9.758;2023-04-10T09:30:31;13.93;;;12.63;;
60464;SDS011;46314;52.392;9.758;2023-04-10T09:32:58;13.85;;;12.23;;
60464;SDS011;46314;52.392;9.758;2023-04-10T09:35:34;13.50;;;12.10;;
60464;SDS011;46314;52.392;9.758;2023-04-10T09:38:12;12.18;;;10.88;;
60464;SDS011;46314;52.392;9.758;2023-04-10T09:40:40;13.23;;;11.95;;
60464;SDS011;46314;52.392;9.758;2023-04-10T09:43:15;12.35;;;11.15;;
60464;SDS011;46314;52.392;9.758;2023-04-10T09:45:46;13.20;;;11.68;;
60464;SDS011;46314;52.392;9.758;2023-04-10T09:48:13;13.13;;;11.75;;
60464;SDS011;46314;52.392;9.758;2023-04-10T09:50:40;15.02;;;13.13;;
60464;SDS011;46314;52.392;9.758;2023-04-10T09:53:06;14.18;;;12.45;;
60464;SDS011;46314;52.392;9.758;2023-04-10T09:55:33;13.65;;;12.13;;
60464;SDS011;46314;52.392;9.758;2023-04-10T09:58:01;14.05;;;12.52;;
60464;SDS011;46314;52.392;9.758;2023-04-10T10:00:28;14.25;;;12.88;;
60464;SDS011;46314;52.392;9.758;2023-04-10T10:02:55;12.48;;;11.27;;
60464;SDS011;46314;52.392;9.758;2023-04-10T10:05:24;14.13;;;11.55;;
60464;SDS011;46314;52.392;9.758;2023-04-10T10:07:51;13.88;;;12.40;;
60464;SDS011;46314;52.392;9.758;2023-04-10T10:10:17;15.13;;;13.18;;
60464;SDS011;46314;52.392;9.758;2023-04-10T10:12:44;13.80;;;12.35;;
60464;SDS011;46314;52.392;9.758;2023-04-10T10:15:22;12.55;;;11.25;;
60464;SDS011;46314;52.392;9.758;2023-04-10T10:17:58;11.30;;;10.10;;
60464;SDS011;46314;52.392;9.758;2023-04-10T10:20:29;11.73;;;10.52;;
60464;SDS011;46314;52.392;9.758;2023-04-10T10:23:00;11.00;;;9.93;;
60464;SDS011;46314;52.392;9.758;2023-04-10T10:25:27;10.43;;;9.43;;
60464;SDS011;46314;52.392;9.758;2023-04-10T10:27:55;10.38;;;9.15;;
60464;SDS011;46314;52.392;9.758;2023-04-10T10:30:28;10.20;;;9.10;;
60464;SDS011;46314;52.392;9.758;2023-04-10T10:32:57;9.38;;;8.48;;
60464;SDS011;46314;52.392;9.758;2023-04-10T10:35:25;11.15;;;9.68;;
60464;SDS011;46314;52.392;9.758;2023-04-10T10:37:54;9.73;;;8.73;;
60464;SDS011;46314;52.392;9.758;2023-04-10T10:40:23;9.40;;;8.40;;
60464;SDS011;46314;52.392;9.758;2023-04-10T10:42:55;9.48;;;8.55;;
60464;SDS011;46314;52.392;9.758;2023-04-10T10:45:29;8.57;;;7.68;;
60464;SDS011;46314;52.392;9.758;2023-04-10T10:47:59;10.75;;;8.52;;
60464;SDS011;46314;52.392;9.758;2023-04-10T10:50:32;9.70;;;8.02;;
60464;SDS011;46314;52.392;9.758;2023-04-10T10:53:29;9.75;;;8.55;;
60464;SDS011;46314;52.392;9.758;2023-04-10T10:55:56;8.68;;;7.88;;
60464;SDS011;46314;52.392;9.758;2023-04-10T10:58:44;9.73;;;8.80;;
60464;SDS011;46314;52.392;9.758;2023-04-10T11:01:12;10.32;;;9.23;;
60464;SDS011;46314;52.392;9.758;2023-04-10T11:03:39;11.25;;;10.05;;
60464;SDS011;46314;52.392;9.758;2023-04-10T11:06:06;10.43;;;9.30;;
60464;SDS011;46314;52.392;9.758;2023-04-10T11:08:34;9.82;;;8.85;;
60464;SDS011;46314;52.392;9.758;2023-04-10T11:11:02;10.43;;;9.38;;
60464;SDS011;46314;52.392;9.758;2023-04-10T11:13:30;10.40;;;9.35;;
60464;SDS011;46314;52.392;9.758;2023-04-10T11:15:57;10.38;;;9.35;;
60464;SDS011;46314;52.392;9.758;2023-04-10T11:24:28;11.13;;;10.13;;
60464;SDS011;46314;52.392;9.758;2023-04-10T11:26:55;10.40;;;9.40;;
60464;SDS011;46314;52.392;9.758;2023-04-10T11:29:33;9.60;;;8.60;;
60464;SDS011;46314;52.392;9.758;2023-04-10T11:32:00;10.57;;;9.48;;
60464;SDS011;46314;52.392;9.758;2023-04-10T11:34:29;10.57;;;9.48;;
60464;SDS011;46314;52.392;9.758;2023-04-10T11:36:55;11.15;;;10.02;;
60464;SDS011;46314;52.392;9.758;2023-04-10T11:39:22;11.25;;;10.07;;
60464;SDS011;46314;52.392;9.758;2023-04-10T11:41:49;9.30;;;8.40;;
60464;SDS011;46314;52.392;9.758;2023-04-10T11:44:17;10.60;;;9.50;;
60464;SDS011;46314;52.392;9.758;2023-04-10T11:46:52;9.82;;;8.88;;
60464;SDS011;46314;52.392;9.758;2023-04-10T11:49:19;9.63;;;8.68;;
60464;SDS011;46314;52.392;9.758;2023-04-10T11:51:49;11.10;;;10.00;;
60464;SDS011;46314;52.392;9.758;2023-04-10T11:54:17;11.40;;;9.15;;
60464;SDS011;46314;52.392;9.758;2023-04-10T11:56:45;12.32;;;9.75;;
60464;SDS011;46314;52.392;9.758;2023-04-10T11:59:21;10.02;;;8.98;;
60464;SDS011;46314;52.392;9.758;2023-04-10T12:01:48;10.45;;;9.43;;
60464;SDS011;46314;52.392;9.758;2023-04-10T12:04:16;10.07;;;9.07;;
60464;SDS011;46314;52.392;9.758;2023-04-10T12:06:44;9.50;;;8.52;;
60464;SDS011;46314;52.392;9.758;2023-04-10T12:09:13;9.85;;;8.95;;
60464;SDS011;46314;52.392;9.758;2023-04-10T12:11:46;10.95;;;8.63;;
60464;SDS011;46314;52.392;9.758;2023-04-10T12:14:14;8.93;;;8.13;;
60464;SDS011;46314;52.392;9.758;2023-04-10T12:16:40;8.35;;;7.55;;
60464;SDS011;46314;52.392;9.758;2023-04-10T12:19:07;7.63;;;6.93;;
60464;SDS011;46314;52.392;9.758;2023-04-10T12:21:34;8.23;;;7.47;;
60464;SDS011;46314;52.392;9.758;2023-04-10T12:24:01;7.93;;;7.13;;
60464;SDS011;46314;52.392;9.758;2023-04-10T12:26:29;8.35;;;7.50;;
60464;SDS011;46314;52.392;9.758;2023-04-10T12:28:55;8.20;;;7.10;;
60464;SDS011;46314;52.392;9.758;2023-04-10T12:31:26;8.52;;;7.55;;
60464;SDS011;46314;52.392;9.758;2023-04-10T12:33:53;7.78;;;6.97;;
60464;SDS011;46314;52.392;9.758;2023-04-10T12:36:20;7.63;;;6.93;;
60464;SDS011;46314;52.392;9.758;2023-04-10T12:38:46;9.75;;;7.70;;
60464;SDS011;46314;52.392;9.758;2023-04-10T12:41:13;8.40;;;7.53;;
60464;SDS011;46314;52.392;9.758;2023-04-10T12:43:48;7.97;;;7.18;;
60464;SDS011;46314;52.392;9.758;2023-04-10T12:46:21;9.27;;;6.88;;
60464;SDS011;46314;52.392;9.758;2023-04-10T12:48:49;7.53;;;6.82;;
60464;SDS011;46314;52.392;9.758;2023-04-10T12:51:16;7.47;;;6.78;;
60464;SDS011;46314;52.392;9.758;2023-04-10T12:53:42;7.78;;;6.95;;
60464;SDS011;46314;52.392;9.758;2023-04-10T12:56:09;7.35;;;6.65;;
60464;SDS011;46314;52.392;9.758;2023-04-10T12:58:36;11.40;;;6.65;;
60464;SDS011;46314;52.392;9.758;2023-04-10T13:01:05;7.70;;;6.90;;
60464;SDS011;46314;52.392;9.758;2023-04-10T13:03:34;7.63;;;6.90;;
60464;SDS011;46314;52.392;9.758;2023-04-10T13:06:01;7.88;;;7.07;;
60464;SDS011;46314;52.392;9.758;2023-04-10T13:08:27;7.65;;;6.72;;
60464;SDS011;46314;52.392;9.758;2023-04-10T13:10:53;7.45;;;6.72;;
60464;SDS011;46314;52.392;9.758;2023-04-10T13:13:20;8.65;;;6.88;;
60464;SDS011;46314;52.392;9.758;2023-04-10T13:15:46;8.52;;;7.72;;
60464;SDS011;46314;52.392;9.758;2023-04-10T13:18:14;8.05;;;7.25;;
60464;SDS011;46314;52.392;9.758;2023-04-10T13:20:40;7.63;;;6.82;;
60464;SDS011;46314;52.392;9.758;2023-04-10T13:23:07;9.43;;;7.15;;
60464;SDS011;46314;52.392;9.758;2023-04-10T13:25:35;7.95;;;7.00;;
60464;SDS011;46314;52.392;9.758;2023-04-10T13:28:02;7.60;;;6.85;;
60464;SDS011;46314;52.392;9.758;2023-04-10T13:30:29;7.85;;;7.05;;
60464;SDS011;46314;52.392;9.758;2023-04-10T13:32:55;7.72;;;6.78;;
60464;SDS011;46314;52.392;9.758;2023-04-10T13:35:23;7.93;;;6.35;;
60464;SDS011;46314;52.392;9.758;2023-04-10T13:37:49;6.45;;;5.85;;
60464;SDS011;46314;52.392;9.758;2023-04-10T13:40:15;7.30;;;6.45;;
60464;SDS011;46314;52.392;9.758;2023-04-10T13:42:42;7.68;;;6.88;;
60464;SDS011;46314;52.392;9.758;2023-04-10T13:45:08;8.68;;;6.55;;
60464;SDS011;46314;52.392;9.758;2023-04-10T13:47:36;7.30;;;6.55;;
60464;SDS011;46314;52.392;9.758;2023-04-10T13:50:02;7.80;;;6.45;;
60464;SDS011;46314;52.392;9.758;2023-04-10T13:52:30;7.10;;;5.97;;
60464;SDS011;46314;52.392;9.758;2023-04-10T13:54:56;7.00;;;6.30;;
60464;SDS011;46314;52.392;9.758;2023-04-10T13:57:23;6.78;;;6.15;;
60464;SDS011;46314;52.392;9.758;2023-04-10T13:59:49;8.98;;;7.72;;
60464;SDS011;46314;52.392;9.758;2023-04-10T14:02:16;9.02;;;7.75;;
60464;SDS011;46314;52.392;9.758;2023-04-10T14:04:42;8.85;;;7.95;;
60464;SDS011;46314;52.392;9.758;2023-04-10T14:07:08;9.23;;;8.43;;
60464;SDS011;46314;52.392;9.758;2023-04-10T14:09:36;9.70;;;8.68;;
60464;SDS011;46314;52.392;9.758;2023-04-10T14:12:03;8.27;;;7.55;;
60464;SDS011;46314;52.392;9.758;2023-04-10T14:14:29;8.05;;;7.35;;
60464;SDS011;46314;52.392;9.758;2023-04-10T14:16:55;6.55;;;5.95;;
60464;SDS011;46314;52.392;9.758;2023-04-10T14:19:22;6.15;;;5.65;;
60464;SDS011;46314;52.392;9.758;2023-04-10T14:21:49;5.70;;;5.20;;
60464;SDS011;46314;52.392;9.758;2023-04-10T14:24:15;6.03;;;5.20;;
60464;SDS011;46314;52.392;9.758;2023-04-10T14:26:43;4.82;;;4.43;;
60464;SDS011;46314;52.392;9.758;2023-04-10T14:29:09;5.20;;;4.70;;
60464;SDS011;46314;52.392;9.758;2023-04-10T14:31:36;6.38;;;5.18;;
60464;SDS011;46314;52.392;9.758;2023-04-10T14:36:46;6.60;;;6.03;;
60464;SDS011;46314;52.392;9.758;2023-04-10T14:39:12;7.55;;;6.78;;
60464;SDS011;46314;52.392;9.758;2023-04-10T14:41:39;7.47;;;6.57;;
60464;SDS011;46314;52.392;9.758;2023-04-10T14:44:06;5.43;;;4.80;;